Time;durP1;ratioP1;P1;durP2;ratioP2;P2;SDS_P1;SDS_P2;PMS_P1;PMS_P2;Temp;Humidity;BMP_temperature;BMP_pressure;BME280_temperature;BME280_humidity;BME280_pressure;Samples;Min_cycle;Max_cycle;Signal;HPM_P1;HPM_P2
2024/03/05 00:01:17;;;;;;;150.73;57.90;;;;;;;7.73;92.33;98436.22;5025904;28;20580;-80
2024/03/05 00:03:42;;;;;;;140.35;59.00;;;;;;;7.67;92.50;98421.22;5025108;28;20068;-81
2024/03/05 00:06:10;;;;;;;145.32;59.10;;;;;;;7.61;92.48;98416.88;5005770;28;20057;-79
2024/03/05 00:08:35;;;;;;;142.38;54.92;;;;;;;7.67;92.17;98428.38;5026116;28;20032;-81
2024/03/05 00:11:02;;;;;;;149.45;57.53;;;;;;;7.75;92.06;98439.44;5012234;28;20382;-80
2024/03/05 00:13:30;;;;;;;150.45;57.30;;;;;;;7.68;92.38;98430.00;5028821;28;20033;-80
2024/03/05 00:15:57;;;;;;;153.98;59.88;;;;;;;7.57;93.36;98432.50;5028146;28;20036;-80
2024/03/05 00:18:22;;;;;;;149.70;57.47;;;;;;;7.67;92.93;98439.00;5030526;28;20032;-81
2024/03/05 00:20:48;;;;;;;146.65;58.45;;;;;;;7.57;93.19;98431.69;5025935;28;20033;-79
2024/03/05 00:23:13;;;;;;;138.48;56.22;;;;;;;7.52;93.85;98434.25;5011388;28;20165;-81
2024/03/05 00:25:39;;;;;;;147.45;57.20;;;;;;;7.56;92.97;98422.91;5023903;28;20064;-80
2024/03/05 00:28:05;;;;;;;144.02;56.83;;;;;;;7.53;93.15;98427.91;5004274;28;20033;-79
2024/03/05 00:30:31;;;;;;;154.35;57.55;;;;;;;7.54;93.24;98446.25;5020136;28;20033;-81
2024/03/05 00:32:57;;;;;;;142.05;56.03;;;;;;;7.50;93.50;98429.19;5010653;28;20046;-81
2024/03/05 00:35:22;;;;;;;139.18;55.13;;;;;;;7.64;93.21;98437.66;5030424;28;20108;-80
2024/03/05 00:37:48;;;;;;;140.32;56.20;;;;;;;7.68;93.41;98441.44;5030659;28;20488;-81
2024/03/05 00:40:14;;;;;;;134.25;53.80;;;;;;;7.55;92.50;98421.31;5027682;28;20044;-81
2024/03/05 00:42:39;;;;;;;141.68;55.20;;;;;;;7.58;93.21;98428.78;5044149;28;20486;-81
2024/03/05 00:45:06;;;;;;;132.65;55.97;;;;;;;7.72;92.43;98437.25;5028076;28;20489;-81
2024/03/05 00:47:33;;;;;;;139.57;54.08;;;;;;;7.75;92.31;98442.09;5029313;28;20044;-81
2024/03/05 00:49:59;;;;;;;128.43;54.88;;;;;;;7.61;92.06;98419.53;5030469;28;20041;-80
2024/03/05 00:52:25;;;;;;;133.32;54.08;;;;;;;7.69;92.15;98432.41;5029944;28;20044;-80
2024/03/05 00:54:50;;;;;;;131.50;52.83;;;;;;;7.69;92.60;98428.97;5021921;28;20025;-81
2024/03/05 00:57:18;;;;;;;133.55;54.03;;;;;;;7.74;92.22;98434.34;5031948;28;20037;-81
2024/03/05 00:59:44;;;;;;;132.50;53.45;;;;;;;7.70;92.27;98439.34;5028615;28;20041;-81
2024/03/05 01:02:09;;;;;;;131.88;54.17;;;;;;;7.75;92.00;98436.78;5028871;28;20914;-80
2024/03/05 01:04:34;;;;;;;137.35;53.70;;;;;;;7.56;92.89;98428.22;5029165;28;20088;-79
2024/03/05 01:07:00;;;;;;;123.70;51.78;;;;;;;7.73;92.77;98436.22;4997852;28;20030;-82
2024/03/05 01:09:27;;;;;;;129.60;52.85;;;;;;;7.77;92.47;98424.06;5028661;28;20034;-81
2024/03/05 01:11:53;;;;;;;121.32;50.53;;;;;;;7.64;92.69;98429.69;5026449;28;20033;-81
2024/03/05 01:14:22;;;;;;;132.18;49.80;;;;;;;7.57;92.91;98429.84;5028091;28;20037;-81
2024/03/05 01:16:47;;;;;;;136.00;52.15;;;;;;;7.55;93.23;98439.91;5021071;28;20457;-81
2024/03/05 01:19:13;;;;;;;134.65;54.05;;;;;;;7.58;93.56;98442.06;5012882;28;20124;-81
2024/03/05 01:21:42;;;;;;;129.00;51.97;;;;;;;7.55;93.22;98431.94;5024726;28;20026;-81
2024/03/05 01:24:11;;;;;;;136.82;55.42;;;;;;;7.62;93.30;98415.03;5021754;28;20055;-81
2024/03/05 01:26:37;;;;;;;135.98;52.10;;;;;;;7.47;93.39;98407.59;5005865;28;20033;-81
2024/03/05 01:29:04;;;;;;;131.85;52.60;;;;;;;7.55;93.11;98420.50;5025523;28;20025;-80
2024/03/05 01:31:29;;;;;;;137.18;54.55;;;;;;;7.60;93.46;98409.16;5031289;28;20061;-81
2024/03/05 01:33:55;;;;;;;126.85;51.50;;;;;;;7.64;93.34;98431.53;5028352;28;20064;-81
2024/03/05 01:36:20;;;;;;;136.65;52.90;;;;;;;7.56;92.85;98416.78;5012749;28;20037;-81
2024/03/05 01:38:46;;;;;;;126.10;53.40;;;;;;;7.23;93.84;98371.63;5004340;28;20038;-80
2024/03/05 01:41:13;;;;;;;126.93;51.55;;;;;;;7.62;93.55;98433.63;5027921;28;20030;-81
2024/03/05 01:43:39;;;;;;;131.50;49.00;;;;;;;7.64;93.85;98420.91;5038610;28;20037;-80
2024/03/05 01:46:04;;;;;;;132.40;52.70;;;;;;;7.44;94.10;98424.03;4997075;28;20558;-81
2024/03/05 01:48:30;;;;;;;130.57;51.67;;;;;;;7.55;93.48;98421.31;5029927;28;20029;-81
2024/03/05 01:50:56;;;;;;;127.18;50.53;;;;;;;7.56;93.94;98422.09;4996941;28;20413;-81
2024/03/05 01:53:22;;;;;;;130.05;51.20;;;;;;;7.55;93.74;98420.50;5034515;28;20066;-81
2024/03/05 01:55:48;;;;;;;121.20;47.25;;;;;;;7.29;94.80;98426.41;5015966;28;20159;-81
2024/03/05 01:58:17;;;;;;;118.00;48.85;;;;;;;7.49;94.55;98411.63;5031315;28;20029;-80
2024/03/05 02:00:43;;;;;;;110.63;47.55;;;;;;;7.61;93.62;98414.22;5028227;28;20400;-81
2024/03/05 02:03:11;;;;;;;117.38;50.47;;;;;;;7.72;93.43;98413.34;5028515;28;20022;-80
2024/03/05 02:05:41;;;;;;;125.38;50.15;;;;;;;7.47;93.17;98387.16;5031285;28;20037;-80
2024/03/05 02:08:06;;;;;;;109.35;46.25;;;;;;;7.67;93.23;98428.38;5028923;28;20041;-82
2024/03/05 02:10:32;;;;;;;106.60;43.22;;;;;;;7.64;93.07;98418.25;5028025;28;20044;-81
2024/03/05 02:12:58;;;;;;;118.07;46.60;;;;;;;7.71;93.16;98416.25;5027247;28;20097;-80
2024/03/05 02:15:23;;;;;;;111.88;46.28;;;;;;;7.75;92.70;98422.69;5026330;28;20128;-82
2024/03/05 02:17:50;;;;;;;100.20;42.15;;;;;;;7.72;92.67;98415.19;5033430;28;20059;-81
2024/03/05 02:20:16;;;;;;;97.50;45.30;;;;;;;7.76;92.38;98424.28;5032115;28;20038;-82
2024/03/05 02:22:42;;;;;;;101.50;44.35;;;;;;;7.50;93.98;98402.63;5042413;28;20451;-81
2024/03/05 02:25:08;;;;;;;99.93;43.85;;;;;;;7.56;93.66;98409.63;5032014;28;20034;-81
2024/03/05 02:27:36;;;;;;;102.57;44.40;;;;;;;7.50;94.13;98410.59;5014838;28;20064;-82
2024/03/05 02:30:02;;;;;;;97.50;43.50;;;;;;;7.46;93.68;98409.47;5011772;28;20034;-82
2024/03/05 02:32:29;;;;;;;98.97;44.38;;;;;;;6.73;94.00;98321.06;5015062;28;20120;-82
2024/03/05 02:34:54;;;;;;;93.95;40.65;;;;;;;7.51;94.97;98427.34;5031182;28;20469;-81
2024/03/05 02:37:22;;;;;;;88.65;40.42;;;;;;;7.60;94.56;98425.09;4994419;28;20033;-82
2024/03/05 02:39:48;;;;;;;89.28;39.75;;;;;;;7.57;93.86;98427.19;5030165;28;20040;-81
2024/03/05 02:42:13;;;;;;;103.78;43.15;;;;;;;7.15;95.00;98425.88;5033047;28;20030;-82
2024/03/05 02:44:39;;;;;;;109.03;46.17;;;;;;;6.70;98.21;98422.31;5032813;28;20043;-81
2024/03/05 02:47:05;;;;;;;117.60;47.17;;;;;;;6.35;100.00;98426.84;5032536;28;20026;-80
2024/03/05 02:49:31;;;;;;;129.25;48.42;;;;;;;6.25;100.00;98416.81;5025257;28;20510;-80
2024/03/05 02:51:56;;;;;;;126.45;50.47;;;;;;;6.31;100.00;98417.75;5026678;28;20481;-82
2024/03/05 02:54:21;;;;;;;156.48;59.85;;;;;;;6.22;100.00;98427.09;5024061;28;20032;-81
2024/03/05 02:56:47;;;;;;;169.98;60.58;;;;;;;6.44;100.00;98425.47;4988360;28;20048;-81
2024/03/05 02:59:12;;;;;;;128.63;54.13;;;;;;;6.71;100.00;98415.97;5004089;28;20107;-81
2024/03/05 03:01:38;;;;;;;155.20;56.95;;;;;;;6.82;100.00;98431.84;5033195;28;20032;-81
2024/03/05 03:04:05;;;;;;;151.88;59.92;;;;;;;6.92;99.20;98423.31;4996653;28;20033;-80
2024/03/05 03:06:31;;;;;;;171.60;64.75;;;;;;;6.90;98.81;98432.53;5013662;28;20036;-81
2024/03/05 03:08:56;;;;;;;153.65;61.70;;;;;;;7.16;97.97;98424.03;5014138;28;20029;-81
2024/03/05 03:11:21;;;;;;;165.70;62.38;;;;;;;7.09;97.09;98421.50;5007140;28;20033;-82
2024/03/05 03:13:47;;;;;;;192.32;71.57;;;;;;;6.59;98.62;98423.94;5031177;28;20029;-80
2024/03/05 03:16:13;;;;;;;193.38;72.22;;;;;;;6.20;100.00;98432.63;5029210;28;20040;-82
2024/03/05 03:18:39;;;;;;;208.20;74.75;;;;;;;5.95;100.00;98409.00;5030842;28;20115;-82
2024/03/05 03:21:05;;;;;;;219.18;75.50;;;;;;;6.15;100.00;98397.25;5029339;28;20484;-81
2024/03/05 03:23:30;;;;;;;214.90;77.63;;;;;;;6.26;100.00;98439.66;5030258;28;20026;-81
2024/03/05 03:25:58;;;;;;;251.35;82.93;;;;;;;5.89;100.00;98441.69;5030011;28;20026;-81
2024/03/05 03:28:24;;;;;;;253.27;84.93;;;;;;;5.85;100.00;98435.22;5007165;28;20049;-81
2024/03/05 03:30:54;;;;;;;249.27;82.25;;;;;;;5.93;100.00;98420.84;5006054;28;20042;-81
2024/03/05 03:33:20;;;;;;;265.65;85.03;;;;;;;5.86;100.00;98428.91;5013637;28;20551;-81
2024/03/05 03:35:46;;;;;;;276.70;87.70;;;;;;;5.91;100.00;98438.81;5041794;28;20029;-80
2024/03/05 03:38:11;;;;;;;288.85;89.47;;;;;;;5.89;100.00;98428.47;5030204;28;20045;-81
2024/03/05 03:40:37;;;;;;;279.77;88.53;;;;;;;5.87;100.00;98422.59;5022738;28;20038;-82
2024/03/05 03:43:02;;;;;;;253.68;83.03;;;;;;;6.35;100.00;98432.97;5009412;28;20032;-81
2024/03/05 03:45:28;;;;;;;249.68;81.13;;;;;;;6.29;100.00;98417.19;5018807;28;20153;-81
2024/03/05 03:47:53;;;;;;;245.95;85.68;;;;;;;6.41;100.00;98417.97;5027691;28;20444;-81
2024/03/05 03:50:18;;;;;;;230.68;80.50;;;;;;;6.92;100.00;98433.91;5027508;28;20065;-81
2024/03/05 03:52:44;;;;;;;250.77;84.57;;;;;;;6.71;100.00;98419.41;5012040;28;20034;-81
2024/03/05 03:55:09;;;;;;;241.10;78.57;;;;;;;6.78;100.00;98432.56;5031363;28;20476;-81
2024/03/05 03:57:35;;;;;;;218.93;77.05;;;;;;;6.71;100.00;98423.91;5041689;28;20041;-82
2024/03/05 04:00:07;;;;;;;224.35;74.88;;;;;;;7.43;97.62;98439.13;5007802;28;20033;-82
2024/03/05 04:02:34;;;;;;;225.70;78.35;;;;;;;7.49;95.99;98438.19;5031587;28;20033;-82
2024/03/05 04:04:59;;;;;;;222.80;76.60;;;;;;;7.39;95.76;98438.00;5053062;28;20044;-82
2024/03/05 04:07:26;;;;;;;200.38;73.20;;;;;;;7.44;96.51;98445.25;5023363;28;20037;-82
2024/03/05 04:09:52;;;;;;;203.80;69.88;;;;;;;7.43;95.78;98435.66;5029310;28;20033;-82
2024/03/05 04:12:17;;;;;;;200.02;73.68;;;;;;;7.41;95.20;98446.53;5013442;28;20488;-82
2024/03/05 04:14:42;;;;;;;199.48;73.82;;;;;;;7.48;95.51;98446.38;5032234;28;20478;-81
2024/03/05 04:17:08;;;;;;;223.95;73.13;;;;;;;7.54;95.42;98451.56;5027617;28;20041;-81
2024/03/05 04:19:34;;;;;;;207.40;72.72;;;;;;;7.48;95.10;98449.03;5027394;28;20030;-81
2024/03/05 04:22:02;;;;;;;207.57;74.28;;;;;;;7.11;95.75;98408.00;5020193;28;20025;-82
2024/03/05 04:24:27;;;;;;;203.77;72.32;;;;;;;7.30;96.26;98439.44;5009571;28;20083;-81
2024/03/05 04:26:53;;;;;;;194.52;71.90;;;;;;;7.25;96.76;98444.63;5025855;28;20489;-82
2024/03/05 04:29:19;;;;;;;199.85;71.47;;;;;;;7.37;96.63;98450.72;5030594;28;20445;-82
2024/03/05 04:32:08;;;;;;;191.70;67.05;;;;;;;7.36;96.33;98450.97;5024980;28;20121;-80
2024/03/05 04:34:39;;;;;;;191.43;70.53;;;;;;;7.28;95.93;98433.56;5028322;28;20420;-81
2024/03/05 04:37:08;;;;;;;186.77;67.30;;;;;;;7.29;96.07;98451.09;5021499;28;20033;-81
2024/03/05 04:39:34;;;;;;;175.43;64.45;;;;;;;7.43;95.55;98448.94;5030265;28;20417;-82
2024/03/05 04:41:59;;;;;;;178.30;68.43;;;;;;;7.49;95.54;98451.44;5021850;28;20033;-82
2024/03/05 04:44:25;;;;;;;190.55;67.88;;;;;;;7.49;95.78;98448.78;4994296;28;20057;-81
2024/03/05 04:46:51;;;;;;;174.13;67.38;;;;;;;7.38;95.20;98440.91;5025677;28;20053;-81
2024/03/05 04:49:16;;;;;;;185.07;65.05;;;;;;;7.47;95.04;98448.22;5026435;28;20049;-82
2024/03/05 04:51:42;;;;;;;196.95;68.53;;;;;;;7.40;95.24;98434.28;5022706;28;20053;-82
2024/03/05 04:54:09;;;;;;;176.88;64.80;;;;;;;7.50;95.16;98441.66;5023131;28;20045;-80
2024/03/05 04:56:36;;;;;;;185.82;65.85;;;;;;;7.43;95.05;98446.28;5008354;28;20083;-81
2024/03/05 04:59:01;;;;;;;176.43;65.32;;;;;;;7.38;95.39;98443.56;5027951;28;20028;-82
2024/03/05 05:01:26;;;;;;;189.35;65.07;;;;;;;7.45;95.39;98442.34;5027240;28;20089;-81
2024/03/05 05:03:52;;;;;;;169.32;66.05;;;;;;;7.29;95.90;98435.19;5009974;28;20033;-81
2024/03/05 05:06:17;;;;;;;194.55;68.00;;;;;;;7.45;96.02;98445.00;5012923;28;20552;-81
2024/03/05 05:08:42;;;;;;;163.50;62.67;;;;;;;7.43;96.14;98444.44;5029417;28;20060;-82
2024/03/05 05:11:08;;;;;;;167.85;65.82;;;;;;;7.36;95.63;98443.78;5024573;28;20040;-80
2024/03/05 05:13:33;;;;;;;180.45;64.03;;;;;;;7.40;96.59;98449.44;5010568;28;20093;-80
2024/03/05 05:15:59;;;;;;;171.30;62.10;;;;;;;7.44;95.92;98440.75;5032235;28;20090;-81
2024/03/05 05:18:24;;;;;;;173.10;65.78;;;;;;;7.49;95.85;98446.13;4992021;28;20025;-81
2024/03/05 05:20:51;;;;;;;168.80;64.53;;;;;;;7.44;95.31;98427.50;5027533;28;20558;-82
2024/03/05 05:23:17;;;;;;;164.13;59.38;;;;;;;7.31;95.09;98456.97;5024856;28;20033;-82
2024/03/05 05:25:43;;;;;;;171.75;66.25;;;;;;;6.73;98.76;98448.34;5039309;28;20105;-81
2024/03/05 05:28:08;;;;;;;165.85;63.15;;;;;;;6.70;100.00;98460.25;5032285;28;20547;-82
2024/03/05 05:30:34;;;;;;;190.27;66.95;;;;;;;6.50;100.00;98438.59;5029334;28;20052;-81
2024/03/05 05:32:59;;;;;;;176.20;66.10;;;;;;;6.67;100.00;98443.97;5005863;28;20029;-81
2024/03/05 05:35:25;;;;;;;182.18;64.80;;;;;;;6.68;100.00;98458.88;4998336;28;20482;-81
2024/03/05 05:37:50;;;;;;;201.57;69.43;;;;;;;6.45;100.00;98445.63;5021610;28;20500;-81
2024/03/05 05:40:19;;;;;;;182.52;66.53;;;;;;;7.20;100.00;98457.81;4998235;28;20038;-82
2024/03/05 05:42:49;;;;;;;184.82;66.75;;;;;;;7.60;96.94;98470.25;4994264;28;20033;-82
2024/03/05 05:45:14;;;;;;;164.18;63.08;;;;;;;7.63;95.86;98470.56;5031149;28;20054;-82
2024/03/05 05:47:48;;;;;;;170.77;64.65;;;;;;;7.55;95.38;98463.81;5030178;28;21134;-82
2024/03/05 05:50:17;;;;;;;173.68;65.90;;;;;;;7.38;95.87;98454.97;5024826;28;20063;-82
2024/03/05 05:52:51;;;;;;;170.27;63.22;;;;;;;7.45;95.74;98468.09;5027565;28;20125;-82
2024/03/05 05:55:19;;;;;;;154.38;60.42;;;;;;;7.39;95.57;98445.97;5023327;28;20037;-82
2024/03/05 05:57:47;;;;;;;162.20;63.03;;;;;;;7.43;95.93;98452.41;5027477;28;20025;-83
2024/03/05 06:00:22;;;;;;;171.10;62.08;;;;;;;7.52;95.38;98464.25;5027700;28;20061;-84
2024/03/05 06:02:51;;;;;;;169.88;63.67;;;;;;;7.47;96.07;98472.13;5013932;28;20049;-83
2024/03/05 06:05:17;;;;;;;147.52;61.33;;;;;;;7.57;95.18;98469.69;5023365;28;20071;-84
2024/03/05 06:07:46;;;;;;;156.25;65.40;;;;;;;7.53;95.48;98468.50;5010965;28;20103;-82
2024/03/05 06:10:16;;;;;;;152.70;59.55;;;;;;;7.65;94.93;98473.78;5028380;28;20075;-80
2024/03/05 06:12:42;;;;;;;152.07;60.30;;;;;;;7.69;94.66;98474.13;5007590;28;20507;-84
2024/03/05 06:15:08;;;;;;;157.50;62.58;;;;;;;7.68;95.28;98477.81;5032607;28;20042;-84
2024/03/05 06:17:33;;;;;;;156.98;60.92;;;;;;;7.52;95.57;98474.88;5028167;28;20477;-81
2024/03/05 06:19:59;;;;;;;163.65;62.85;;;;;;;7.43;95.94;98471.00;5026970;28;20178;-80
2024/03/05 06:22:24;;;;;;;152.32;60.50;;;;;;;7.33;95.87;98451.41;5028508;28;20099;-83
2024/03/05 06:24:49;;;;;;;153.00;56.30;;;;;;;7.57;95.35;98472.34;5013361;28;20133;-84
2024/03/05 06:27:16;;;;;;;138.45;55.72;;;;;;;7.56;94.97;98459.28;5026098;28;20021;-83
2024/03/05 06:29:42;;;;;;;137.23;53.17;;;;;;;7.65;95.76;98475.63;4992728;28;20405;-83
2024/03/05 06:32:10;;;;;;;124.10;53.92;;;;;;;7.66;94.79;98471.94;5010990;28;20033;-82
2024/03/05 06:34:35;;;;;;;132.88;53.53;;;;;;;7.56;94.77;98473.38;5020109;28;20037;-82
2024/03/05 06:37:01;;;;;;;124.15;51.58;;;;;;;7.40;95.44;98460.84;5035716;28;20040;-83
2024/03/05 06:39:29;;;;;;;130.07;52.05;;;;;;;7.61;95.94;98471.84;5000539;28;20083;-83
2024/03/05 06:41:56;;;;;;;119.78;49.03;;;;;;;7.55;95.15;98469.13;5033571;28;20056;-84
2024/03/05 06:44:25;;;;;;;132.52;51.97;;;;;;;7.57;95.06;98467.03;5015834;28;20034;-84
2024/03/05 06:46:53;;;;;;;128.38;50.15;;;;;;;7.67;95.59;98484.97;5008702;28;20103;-86
2024/03/05 06:49:27;;;;;;;116.68;45.88;;;;;;;7.64;95.42;98479.34;5035545;28;20055;-84
2024/03/05 06:51:55;;;;;;;127.78;48.30;;;;;;;7.38;95.98;98484.16;5031279;28;20677;-84
2024/03/05 06:57:07;;;;;;;124.30;49.08;;;;;;;7.53;95.41;98471.16;5049149;28;20048;-84
2024/03/05 06:59:32;;;;;;;124.80;51.55;;;;;;;7.42;96.45;98485.34;5045482;28;20017;-84
2024/03/05 07:01:58;;;;;;;131.13;49.78;;;;;;;6.99;99.01;98490.28;5016728;28;20044;-83
2024/03/05 07:04:23;;;;;;;134.10;51.42;;;;;;;7.07;99.61;98478.50;5020470;28;20021;-84
2024/03/05 07:06:49;;;;;;;125.75;49.08;;;;;;;7.13;99.63;98501.44;5018805;28;20141;-84
2024/03/05 07:09:15;;;;;;;128.25;51.22;;;;;;;7.31;99.37;98502.09;5041219;28;20026;-83
2024/03/05 07:11:40;;;;;;;147.43;55.95;;;;;;;6.91;98.15;98471.28;5024345;28;20025;-84
2024/03/05 07:14:07;;;;;;;146.45;51.92;;;;;;;6.99;98.55;98494.81;5035894;28;20060;-84
2024/03/05 07:16:32;;;;;;;124.47;47.17;;;;;;;7.40;97.33;98471.47;5006339;28;20021;-84
2024/03/05 07:19:01;;;;;;;129.90;50.95;;;;;;;7.28;95.58;98440.69;5036499;28;20021;-84
2024/03/05 07:21:28;;;;;;;123.15;48.13;;;;;;;7.50;95.09;98469.00;5035623;28;20026;-82
2024/03/05 07:23:54;;;;;;;119.60;47.92;;;;;;;7.50;95.07;98478.81;5057422;28;20025;-83
2024/03/05 07:26:20;;;;;;;130.20;49.92;;;;;;;7.65;96.12;98504.84;5042505;28;20093;-83
2024/03/05 07:28:45;;;;;;;119.47;47.88;;;;;;;7.43;96.41;98502.84;5033866;28;20033;-83
2024/03/05 07:31:11;;;;;;;129.82;50.83;;;;;;;7.36;96.41;98491.56;5037015;28;20017;-83
2024/03/05 07:33:38;;;;;;;120.85;47.85;;;;;;;7.45;95.93;98499.94;5039253;28;20503;-83
2024/03/05 07:36:04;;;;;;;131.80;51.53;;;;;;;7.21;96.71;98470.03;5033851;28;20030;-82
2024/03/05 07:38:29;;;;;;;133.10;49.58;;;;;;;7.35;97.32;98489.97;5033703;28;20087;-83
2024/03/05 07:40:55;;;;;;;137.57;49.88;;;;;;;7.10;98.48;98486.00;5034878;28;20041;-84
2024/03/05 07:43:21;;;;;;;131.95;50.67;;;;;;;6.71;100.00;98493.69;5035276;28;20033;-84
2024/03/05 07:45:46;;;;;;;122.15;48.83;;;;;;;6.92;100.00;98481.66;5036459;28;20125;-83
2024/03/05 07:48:11;;;;;;;139.25;50.53;;;;;;;6.90;100.00;98494.34;5043483;28;20025;-82
2024/03/05 07:50:38;;;;;;;122.93;49.03;;;;;;;7.30;99.59;98481.91;5034729;28;20030;-83
2024/03/05 07:53:03;;;;;;;122.13;49.28;;;;;;;7.69;97.14;98496.16;5035528;28;20032;-84
2024/03/05 07:55:29;;;;;;;118.18;47.97;;;;;;;7.46;96.41;98467.88;5035368;28;20064;-83
2024/03/05 07:57:56;;;;;;;113.82;44.20;;;;;;;7.33;96.34;98449.56;5012211;28;20029;-84
2024/03/05 08:00:22;;;;;;;108.10;43.85;;;;;;;7.54;96.75;98507.31;5016575;28;20068;-84
2024/03/05 08:02:49;;;;;;;103.63;44.50;;;;;;;7.51;96.53;98489.19;5034803;28;20025;-84
2024/03/05 08:05:23;;;;;;;104.25;44.05;;;;;;;7.48;97.17;98510.13;5034872;28;20033;-83
2024/03/05 08:07:48;;;;;;;102.82;42.55;;;;;;;6.41;96.47;98311.94;5030937;28;20037;-83
2024/03/05 08:10:16;;;;;;;100.40;42.45;;;;;;;7.45;96.60;98508.72;5030332;28;20030;-83
2024/03/05 08:12:43;;;;;;;100.60;40.95;;;;;;;7.36;97.24;98504.84;5029116;28;20500;-84
2024/03/05 08:15:18;;;;;;;88.28;39.95;;;;;;;7.44;97.01;98507.13;5024431;28;20425;-83
2024/03/05 08:17:47;;;;;;;93.95;40.92;;;;;;;7.44;97.48;98506.31;5029963;28;20474;-83
2024/03/05 08:20:17;;;;;;;96.53;41.83;;;;;;;7.62;96.83;98500.84;5026115;28;20021;-84
2024/03/05 08:22:45;;;;;;;103.03;41.95;;;;;;;7.12;96.51;98436.94;5033745;28;20026;-84
2024/03/05 08:25:15;;;;;;;103.10;44.55;;;;;;;7.45;96.08;98500.78;5035324;28;20045;-84
2024/03/05 08:27:51;;;;;;;94.93;42.67;;;;;;;7.55;96.15;98506.28;5020240;28;20081;-83
2024/03/05 08:30:19;;;;;;;99.63;44.53;;;;;;;7.52;96.30;98487.34;5000388;28;20044;-83
2024/03/05 08:32:46;;;;;;;99.03;44.33;;;;;;;7.72;95.38;98502.84;5043554;28;20117;-83
2024/03/05 08:35:12;;;;;;;102.68;44.53;;;;;;;7.80;94.59;98499.81;5052681;28;20029;-83
2024/03/05 08:37:42;;;;;;;97.97;44.25;;;;;;;7.63;95.07;98502.44;5056502;28;20029;-83
2024/03/05 08:40:13;;;;;;;116.05;48.38;;;;;;;7.52;96.27;98517.38;5032061;28;20049;-84
2024/03/05 08:42:42;;;;;;;112.15;45.55;;;;;;;7.73;95.90;98512.44;5018497;28;20123;-84
2024/03/05 08:45:08;;;;;;;120.38;47.83;;;;;;;7.57;95.83;98506.84;5011786;28;20121;-83
2024/03/05 08:47:33;;;;;;;107.93;44.85;;;;;;;7.81;94.86;98501.44;5015094;28;20080;-84
2024/03/05 08:49:59;;;;;;;117.07;47.53;;;;;;;7.61;94.91;98501.06;4998871;28;20089;-84
2024/03/05 08:52:24;;;;;;;98.07;44.30;;;;;;;7.71;94.88;98494.06;4999341;28;20114;-83
2024/03/05 08:54:50;;;;;;;98.90;43.28;;;;;;;7.74;94.98;98488.28;5019481;28;20542;-84
2024/03/05 08:57:15;;;;;;;103.70;43.22;;;;;;;7.84;94.08;98504.41;5022015;28;20061;-84
2024/03/05 08:59:41;;;;;;;105.53;46.10;;;;;;;7.84;94.26;98499.09;5002930;28;20022;-84
2024/03/05 09:02:06;;;;;;;96.68;43.80;;;;;;;7.80;95.00;98519.22;5041913;28;20117;-84
2024/03/05 09:04:31;;;;;;;113.57;46.45;;;;;;;7.53;95.44;98479.13;5036144;28;20025;-84
2024/03/05 09:06:57;;;;;;;107.53;43.22;;;;;;;7.54;95.69;98511.81;5019987;28;20033;-84
2024/03/05 09:09:22;;;;;;;105.78;45.78;;;;;;;7.51;96.22;98499.81;5058642;28;20546;-83
2024/03/05 09:11:48;;;;;;;109.78;45.47;;;;;;;7.66;95.23;98501.16;5075105;28;20025;-84
2024/03/05 09:14:13;;;;;;;111.70;47.58;;;;;;;7.70;94.61;98486.34;5074890;28;20023;-83
2024/03/05 09:16:39;;;;;;;107.03;43.47;;;;;;;8.06;93.51;98533.78;5028566;28;20038;-84
2024/03/05 09:19:05;;;;;;;104.80;44.47;;;;;;;8.08;93.19;98526.38;5025502;28;20116;-87
2024/03/05 09:21:32;;;;;;;107.03;43.88;;;;;;;8.03;93.55;98526.25;5037276;28;20080;-85
2024/03/05 09:23:58;;;;;;;109.30;44.78;;;;;;;8.18;93.14;98523.88;5038419;28;20030;-87
2024/03/05 09:26:23;;;;;;;105.95;47.42;;;;;;;8.25;93.04;98532.50;5038511;28;20040;-86
2024/03/05 09:28:49;;;;;;;112.40;46.17;;;;;;;8.11;93.22;98528.53;5040273;28;20033;-87
2024/03/05 09:31:14;;;;;;;96.55;43.88;;;;;;;7.89;93.86;98533.72;5043874;28;20030;-87
2024/03/05 09:33:39;;;;;;;100.88;44.03;;;;;;;7.87;95.34;98532.34;5047598;28;20083;-87
2024/03/05 09:36:08;;;;;;;100.63;42.53;;;;;;;7.94;95.62;98530.34;5048223;28;20060;-87
2024/03/05 09:38:34;;;;;;;97.13;43.00;;;;;;;7.67;95.40;98513.38;5057796;28;20076;-83
2024/03/05 09:40:59;;;;;;;108.30;43.90;;;;;;;7.76;95.24;98535.84;5046796;28;20033;-84
2024/03/05 09:43:25;;;;;;;97.75;43.65;;;;;;;7.79;95.85;98522.94;5041220;28;20025;-83
2024/03/05 09:45:52;;;;;;;101.82;42.35;;;;;;;7.53;96.07;98502.25;5028456;28;20336;-84
2024/03/05 09:48:19;;;;;;;98.82;41.53;;;;;;;7.69;95.44;98527.25;5045511;28;20417;-84
2024/03/05 09:50:49;;;;;;;100.22;44.35;;;;;;;7.66;95.41;98515.25;5045467;28;20025;-84
2024/03/05 09:53:15;;;;;;;111.00;44.17;;;;;;;7.70;96.17;98524.34;5045758;28;20044;-83
2024/03/05 09:55:41;;;;;;;101.80;42.78;;;;;;;7.64;95.94;98503.25;5046384;28;20036;-84
2024/03/05 09:58:10;;;;;;;90.32;41.60;;;;;;;7.75;95.83;98510.34;5044638;28;20025;-84
2024/03/05 10:00:40;;;;;;;106.40;43.20;;;;;;;7.68;95.52;98501.72;5045903;28;20034;-84
2024/03/05 10:03:11;;;;;;;99.18;42.58;;;;;;;7.93;95.29;98531.41;5046105;28;20033;-83
2024/03/05 10:05:40;;;;;;;111.32;44.65;;;;;;;7.80;96.16;98513.13;5027821;28;20405;-84
2024/03/05 10:08:06;;;;;;;104.60;45.80;;;;;;;8.02;95.37;98536.09;5062133;28;20058;-83
2024/03/05 10:10:34;;;;;;;94.32;40.88;;;;;;;8.12;94.97;98527.50;5063962;28;20083;-84
2024/03/05 10:13:01;;;;;;;97.75;43.53;;;;;;;8.19;94.41;98526.28;5081136;28;20021;-84
2024/03/05 10:15:27;;;;;;;96.90;42.38;;;;;;;8.04;94.04;98503.94;5065369;28;20053;-84
2024/03/05 10:17:54;;;;;;;92.43;44.30;;;;;;;8.47;93.23;98532.59;5067961;28;20025;-83
2024/03/05 10:20:33;;;;;;;101.70;44.00;;;;;;;8.38;92.45;98510.94;5024563;28;20037;-84
2024/03/05 10:23:01;;;;;;;90.90;41.67;;;;;;;8.60;92.45;98529.63;5047438;28;20021;-83
2024/03/05 10:25:32;;;;;;;92.78;41.50;;;;;;;8.59;92.18;98534.13;5027702;28;20060;-83
2024/03/05 10:27:59;;;;;;;92.88;40.33;;;;;;;8.45;92.20;98518.75;5043776;28;20065;-84
2024/03/05 10:30:31;;;;;;;99.93;41.55;;;;;;;8.71;91.54;98524.22;5038604;28;20508;-84
2024/03/05 10:33:01;;;;;;;89.93;41.08;;;;;;;8.82;90.29;98541.91;5025612;28;20109;-84
2024/03/05 10:35:29;;;;;;;84.30;40.83;;;;;;;8.63;90.82;98511.31;5008289;28;20093;-83
2024/03/05 10:38:03;;;;;;;77.90;38.33;;;;;;;8.91;90.81;98543.09;5040212;28;20033;-84
2024/03/05 10:40:32;;;;;;;91.57;42.17;;;;;;;8.83;90.66;98535.56;5026424;28;20057;-83
2024/03/05 10:43:00;;;;;;;81.55;40.60;;;;;;;8.88;90.43;98543.63;5010232;28;20018;-83
2024/03/05 10:45:29;;;;;;;80.18;40.35;;;;;;;8.93;89.99;98541.00;5019753;28;20047;-83
2024/03/05 10:47:58;;;;;;;85.00;38.67;;;;;;;8.88;89.90;98524.16;5013628;28;20029;-82
2024/03/05 10:50:28;;;;;;;74.60;36.10;;;;;;;9.01;88.95;98516.66;5028560;28;20029;-83
2024/03/05 10:52:57;;;;;;;77.60;38.60;;;;;;;9.24;89.21;98536.09;5028325;28;20033;-83
2024/03/05 10:55:23;;;;;;;78.60;39.17;;;;;;;9.23;88.77;98539.81;5046394;28;20026;-83
2024/03/05 11:00:35;;;;;;;80.13;37.25;;;;;;;9.25;90.28;98540.38;5046669;28;20032;-83
2024/03/05 11:03:09;;;;;;;78.13;40.97;;;;;;;8.90;90.61;98541.50;5045731;28;20033;-83
2024/03/05 11:05:37;;;;;;;87.47;43.58;;;;;;;9.12;89.98;98540.72;5060130;28;20059;-83
2024/03/05 11:08:04;;;;;;;81.78;37.97;;;;;;;9.20;89.10;98524.31;5040860;28;20026;-83
2024/03/05 11:10:30;;;;;;;80.40;40.65;;;;;;;9.20;88.95;98532.31;5045191;28;20040;-83
2024/03/05 11:12:55;;;;;;;72.82;37.13;;;;;;;9.20;88.47;98527.78;5044950;28;20026;-83
2024/03/05 11:15:21;;;;;;;81.35;42.88;;;;;;;9.16;88.91;98547.16;4995867;28;20025;-83
2024/03/05 11:17:47;;;;;;;83.72;40.13;;;;;;;9.19;89.21;98531.53;5014962;28;20033;-83
2024/03/05 11:20:40;;;;;;;76.53;41.47;;;;;;;9.44;88.34;98549.66;5025397;28;20030;-82